createdAt,value
2022-10-01T00:00:31.209Z,2.53
2022-10-01T00:03:00.933Z,5.22
2022-10-01T00:05:30.424Z,3.83
2022-10-01T00:07:59.867Z,3.60
2022-10-01T00:10:30.939Z,3.90
2022-10-01T00:13:00.448Z,3.80
2022-10-01T00:15:29.955Z,2.77
2022-10-01T00:18:00.030Z,3.12
2022-10-01T00:20:29.517Z,4.45
2022-10-01T00:22:58.945Z,2.73
2022-10-01T00:25:28.429Z,5.85
2022-10-01T00:27:57.964Z,6.62
2022-10-01T00:30:27.493Z,2.02
2022-10-01T00:32:57.902Z,4.45
2022-10-01T00:35:27.344Z,2.92
2022-10-01T00:37:56.846Z,3.67
2022-10-01T00:40:26.284Z,3.35
2022-10-01T00:42:55.775Z,3.52
2022-10-01T00:45:25.293Z,3.62
2022-10-01T00:48:01.162Z,3.58
2022-10-01T00:50:35.056Z,5.95
2022-10-01T00:53:07.633Z,2.72
2022-10-01T00:55:46.046Z,4.95
2022-10-01T00:58:16.631Z,3.52
2022-10-01T01:00:46.784Z,3.27
2022-10-01T01:03:17.091Z,3.75
2022-10-01T01:05:48.464Z,2.85
2022-10-01T01:08:19.379Z,4.70
2022-10-01T01:10:57.645Z,4.83
2022-10-01T01:13:45.111Z,4.28
2022-10-01T01:16:19.329Z,3.42
2022-10-01T01:19:00.616Z,3.98
2022-10-01T01:21:39.424Z,6.45
2022-10-01T01:24:26.997Z,6.97
2022-10-01T01:27:15.611Z,6.37
2022-10-01T01:30:01.855Z,6.33
2022-10-01T01:32:40.311Z,4.26
2022-10-01T01:35:12.184Z,3.22
2022-10-01T01:37:45.346Z,5.22
2022-10-01T01:40:17.244Z,5.55
2022-10-01T01:42:49.494Z,4.50
2022-10-01T01:45:22.024Z,2.77
2022-10-01T01:47:55.355Z,2.93
2022-10-01T01:50:28.472Z,3.52
2022-10-01T01:52:59.824Z,3.55
2022-10-01T01:55:32.102Z,5.85
2022-10-01T01:58:03.861Z,4.10
2022-10-01T02:00:33.317Z,3.02
2022-10-01T02:03:03.308Z,7.47
2022-10-01T02:05:36.364Z,5.70
2022-10-01T02:11:08.613Z,5.62
2022-10-01T02:14:01.157Z,3.75
2022-10-01T02:16:51.749Z,3.80
2022-10-01T02:19:27.048Z,2.40
2022-10-01T02:22:01.819Z,4.00
2022-10-01T02:25:46.995Z,3.85
2022-10-01T02:28:19.559Z,5.75
2022-10-01T02:33:21.783Z,3.92
2022-10-01T02:35:54.218Z,2.65
2022-10-01T02:38:26.702Z,5.30
2022-10-01T02:41:00.848Z,4.47
2022-10-01T02:43:43.215Z,3.25
2022-10-01T02:46:21.900Z,3.37
2022-10-01T02:48:52.831Z,3.83
2022-10-01T02:51:34.482Z,6.00
2022-10-01T02:54:07.654Z,8.03
2022-10-01T02:56:56.420Z,6.37
2022-10-01T02:59:26.010Z,4.00
2022-10-01T03:01:55.832Z,4.78
2022-10-01T03:04:26.115Z,4.40
2022-10-01T03:06:55.615Z,6.85
2022-10-01T03:09:25.105Z,3.83
2022-10-01T03:11:55.661Z,4.42
2022-10-01T03:14:25.976Z,4.58
2022-10-01T03:16:55.697Z,3.20
2022-10-01T03:19:25.261Z,3.67
2022-10-01T03:21:56.569Z,3.77
2022-10-01T03:24:26.093Z,3.02
2022-10-01T03:26:57.696Z,5.55
2022-10-01T03:29:28.516Z,3.15
2022-10-01T03:31:57.944Z,2.95
2022-10-01T03:34:27.513Z,4.50
2022-10-01T03:36:57.079Z,2.83
2022-10-01T03:39:26.498Z,3.42
2022-10-01T03:41:56.137Z,6.67
2022-10-01T03:44:28.446Z,3.75
2022-10-01T03:46:57.888Z,2.90
2022-10-01T03:49:28.443Z,4.87
2022-10-01T03:51:57.878Z,4.92
2022-10-01T03:54:27.313Z,3.83
2022-10-01T03:56:56.758Z,4.87
2022-10-01T03:59:28.318Z,2.17
2022-10-01T04:01:58.446Z,5.07
2022-10-01T04:04:29.549Z,5.00
2022-10-01T04:06:59.050Z,3.17
2022-10-01T04:09:28.474Z,7.35
2022-10-01T04:11:57.976Z,6.23
2022-10-01T04:14:27.533Z,3.40
2022-10-01T04:16:56.961Z,3.22
2022-10-01T04:19:26.382Z,4.53
2022-10-01T04:21:55.840Z,2.83
2022-10-01T04:24:25.266Z,4.60
2022-10-01T04:26:54.707Z,5.07
2022-10-01T04:29:24.303Z,2.85
2022-10-01T04:31:54.443Z,4.03
2022-10-01T04:34:25.949Z,2.85
2022-10-01T04:36:55.363Z,4.83
2022-10-01T04:39:25.984Z,3.37
2022-10-01T04:41:55.487Z,3.65
2022-10-01T04:44:25.064Z,3.33
2022-10-01T04:46:55.300Z,4.17
2022-10-01T04:49:24.828Z,4.62
2022-10-01T04:51:54.255Z,6.80
2022-10-01T04:54:23.790Z,3.35
2022-10-01T04:56:53.342Z,7.50
2022-10-01T04:59:23.992Z,6.33
2022-10-01T05:01:53.713Z,5.15
2022-10-01T05:04:23.276Z,6.33
2022-10-01T05:06:53.042Z,4.67
2022-10-01T05:09:22.561Z,3.90
2022-10-01T05:11:52.129Z,4.37
2022-10-01T05:14:21.924Z,3.60
2022-10-01T05:16:51.340Z,3.10
2022-10-01T05:19:25.236Z,2.83
2022-10-01T05:21:54.483Z,5.58
2022-10-01T05:24:24.063Z,4.70
2022-10-01T05:26:56.331Z,3.83
2022-10-01T05:29:25.829Z,2.30
2022-10-01T05:31:55.340Z,5.85
2022-10-01T05:34:24.821Z,4.55
2022-10-01T05:36:55.606Z,2.08
2022-10-01T05:39:25.108Z,6.00
2022-10-01T05:41:55.878Z,2.67
2022-10-01T05:44:27.416Z,5.95
2022-10-01T05:46:57.494Z,6.53
2022-10-01T05:49:26.983Z,8.03
2022-10-01T05:51:56.407Z,2.95
2022-10-01T05:54:25.840Z,3.67
2022-10-01T05:56:55.295Z,2.65
2022-10-01T05:59:28.448Z,3.12
2022-10-01T06:01:56.075Z,2.60
2022-10-01T06:04:25.659Z,3.92
2022-10-01T06:06:56.363Z,5.58
2022-10-01T06:09:25.864Z,5.47
2022-10-01T06:11:56.111Z,8.38
2022-10-01T06:14:25.535Z,2.95
2022-10-01T06:16:55.447Z,5.05
2022-10-01T06:19:25.017Z,4.55
2022-10-01T06:21:54.435Z,4.20
2022-10-01T06:24:23.865Z,3.50
2022-10-01T06:26:53.998Z,4.92
2022-10-01T06:29:24.103Z,10.30
2022-10-01T06:31:53.591Z,3.95
2022-10-01T06:34:23.187Z,5.92
2022-10-01T06:36:52.607Z,4.58
2022-10-01T06:39:22.046Z,2.33
2022-10-01T06:41:51.536Z,3.00
2022-10-01T06:44:23.377Z,6.03
2022-10-01T06:46:54.013Z,1.55
2022-10-01T06:49:23.731Z,2.50
2022-10-01T06:52:11.547Z,6.00
2022-10-01T06:54:40.958Z,2.92
2022-10-01T06:57:10.393Z,2.77
2022-10-01T06:59:39.831Z,3.08
2022-10-01T07:02:13.983Z,8.70
2022-10-01T07:04:43.558Z,7.67
2022-10-01T07:07:13.305Z,5.50
2022-10-01T07:09:42.874Z,2.42
2022-10-01T07:12:12.610Z,6.65
2022-10-01T07:14:42.092Z,2.52
2022-10-01T07:17:11.589Z,1.62
2022-10-01T07:19:41.071Z,2.62
2022-10-01T07:22:11.744Z,5.73
2022-10-01T07:24:41.238Z,3.25
2022-10-01T07:27:10.732Z,3.12
2022-10-01T07:29:41.561Z,3.85
2022-10-01T07:32:11.560Z,4.80
2022-10-01T07:34:41.247Z,4.25
2022-10-01T07:37:11.590Z,6.63
2022-10-01T07:44:38.664Z,2.55
2022-10-01T07:50:12.430Z,2.67
2022-10-01T07:52:44.684Z,2.47
2022-10-01T07:55:10.763Z,1.17
2022-10-01T07:57:40.267Z,3.55
2022-10-01T08:00:10.237Z,4.22
2022-10-01T08:05:20.505Z,2.83
2022-10-01T10:37:19.120Z,10.45
2022-10-01T10:42:22.122Z,6.12
2022-10-01T10:44:55.447Z,4.22
2022-10-01T10:47:26.943Z,2.98
2022-10-01T10:50:02.349Z,2.77
2022-10-01T10:52:33.899Z,3.67
2022-10-01T10:55:06.065Z,3.37
2022-10-01T11:00:16.550Z,3.15
2022-10-01T11:02:57.633Z,3.65
2022-10-01T11:05:32.180Z,4.37
2022-10-01T11:08:07.121Z,2.77
2022-10-01T11:10:56.268Z,4.37
2022-10-01T11:13:53.053Z,4.03
2022-10-01T11:16:50.296Z,4.78
2022-10-01T11:19:45.439Z,2.70
2022-10-01T11:22:43.956Z,2.30
2022-10-01T11:25:19.610Z,2.87
2022-10-01T11:30:34.315Z,2.45
2022-10-01T11:33:15.906Z,2.60
2022-10-01T11:36:04.602Z,2.57
2022-10-01T11:38:54.520Z,1.12
2022-10-01T11:41:30.841Z,2.72
2022-10-01T11:44:18.626Z,1.15
2022-10-01T11:52:09.799Z,3.08
2022-10-01T11:54:42.299Z,1.10
2022-10-01T11:57:32.785Z,1.27
2022-10-01T12:00:11.509Z,1.10
2022-10-01T12:02:53.004Z,1.05
2022-10-01T12:05:25.666Z,1.40
2022-10-01T12:08:08.576Z,4.12
2022-10-01T12:10:42.271Z,1.10
2022-10-01T12:13:24.097Z,1.10
2022-10-01T12:15:59.387Z,1.60
2022-10-01T12:18:54.801Z,1.43
2022-10-01T12:21:30.050Z,1.87
2022-10-01T12:24:08.688Z,4.17
2022-10-01T12:26:52.815Z,5.35
2022-10-01T12:29:31.078Z,3.12
2022-10-01T12:32:13.982Z,5.58
2022-10-01T12:35:04.643Z,4.53
2022-10-01T12:37:46.183Z,6.47
2022-10-01T12:40:29.029Z,10.97
2022-10-01T12:43:11.045Z,4.12
2022-10-01T12:45:58.792Z,1.67
2022-10-01T12:48:52.626Z,2.97
2022-10-01T12:51:41.581Z,1.32
2022-10-01T12:54:47.350Z,3.22
2022-10-01T12:57:37.864Z,1.98
2022-10-01T13:00:25.188Z,0.50
2022-10-01T13:02:57.688Z,1.17
2022-10-01T13:05:36.059Z,1.25
2022-10-01T13:08:17.309Z,2.37
2022-10-01T13:11:13.452Z,1.30
2022-10-01T13:13:43.502Z,5.72
2022-10-01T13:16:27.742Z,11.60
2022-10-01T13:19:24.942Z,6.07
2022-10-01T13:22:00.245Z,6.00
2022-10-01T13:24:32.767Z,1.10
2022-10-01T13:27:08.869Z,1.32
2022-10-01T13:29:41.367Z,0.50
2022-10-01T13:32:30.606Z,0.80
2022-10-01T13:35:03.750Z,0.95
2022-10-01T13:37:39.308Z,0.78
2022-10-01T13:40:26.919Z,1.05
2022-10-01T13:42:59.449Z,5.20
2022-10-01T13:45:31.822Z,1.90
2022-10-01T13:51:05.159Z,2.25
2022-10-01T13:53:43.758Z,1.07
2022-10-01T13:56:16.987Z,1.30
2022-10-01T13:58:47.466Z,2.08
2022-10-01T14:01:24.358Z,2.90
2022-10-01T14:04:31.386Z,2.67
2022-10-01T14:07:06.894Z,3.15
2022-10-01T14:09:45.211Z,1.98
2022-10-01T14:12:41.265Z,1.95
2022-10-01T14:15:36.999Z,0.70
2022-10-01T14:18:09.469Z,0.57
2022-10-01T14:20:45.415Z,1.22
2022-10-01T14:23:16.918Z,1.22
2022-10-01T14:25:55.190Z,2.85
2022-10-01T14:28:30.967Z,1.20
2022-10-01T14:31:06.353Z,2.27
2022-10-01T14:34:07.799Z,3.30
2022-10-01T14:36:51.626Z,0.85
2022-10-01T14:39:29.197Z,3.20
2022-10-01T14:41:59.942Z,2.72
2022-10-01T14:44:44.150Z,1.52
2022-10-01T14:47:25.372Z,1.27
2022-10-01T14:49:56.168Z,0.80
2022-10-01T14:52:31.824Z,1.37
2022-10-01T14:55:06.929Z,1.80
2022-10-01T14:57:45.447Z,0.47
2022-10-01T15:00:20.724Z,0.72
2022-10-01T15:02:53.593Z,1.95
2022-10-01T15:08:00.844Z,4.70
2022-10-01T15:10:30.343Z,0.80
2022-10-01T15:12:59.982Z,3.10
2022-10-01T15:15:35.311Z,0.90
2022-10-01T15:18:06.216Z,1.87
2022-10-01T15:20:36.435Z,0.88
2022-10-01T15:23:07.049Z,1.05
2022-10-01T15:25:37.442Z,0.30
2022-10-01T15:28:15.938Z,1.05
2022-10-01T15:30:46.684Z,3.25
2022-10-01T15:33:30.839Z,2.27
2022-10-01T15:36:09.084Z,1.87
2022-10-01T15:38:39.177Z,1.65
2022-10-01T15:41:30.596Z,0.93
2022-10-01T15:43:43.929Z,0.72
2022-10-01T15:46:19.503Z,0.50
2022-10-01T15:48:50.845Z,1.50
2022-10-01T15:51:23.352Z,0.78
2022-10-01T15:53:53.515Z,2.92
2022-10-01T15:56:25.053Z,1.98
2022-10-01T15:58:57.577Z,1.20
2022-10-01T16:01:30.319Z,1.70
2022-10-01T16:04:05.533Z,1.10
2022-10-01T16:06:43.773Z,1.47
2022-10-01T16:09:22.316Z,1.10
2022-10-01T16:12:00.573Z,1.17
2022-10-01T16:14:40.331Z,1.75
2022-10-01T16:17:23.049Z,1.07
2022-10-01T16:19:58.478Z,3.00
2022-10-01T16:22:33.870Z,2.10
2022-10-01T16:25:07.536Z,2.70
2022-10-01T16:27:49.356Z,1.15
2022-10-01T16:30:25.899Z,1.03
2022-10-01T16:32:56.773Z,1.92
2022-10-01T16:35:33.386Z,2.47
2022-10-01T16:38:05.607Z,1.40
2022-10-01T16:40:40.892Z,1.27
2022-10-01T16:43:13.456Z,1.02
2022-10-01T16:45:45.682Z,1.02
2022-10-01T16:48:24.452Z,3.50
2022-10-01T16:50:55.056Z,1.25
2022-10-01T16:53:25.357Z,3.80
2022-10-01T16:55:56.455Z,3.70
2022-10-01T16:58:27.474Z,2.25
2022-10-01T17:00:56.967Z,2.08
2022-10-01T17:03:27.335Z,4.85
2022-10-01T17:05:56.750Z,5.12
2022-10-01T17:08:26.241Z,0.70
2022-10-01T17:10:59.270Z,2.33
2022-10-01T17:13:32.709Z,4.08
2022-10-01T17:16:04.742Z,1.75
2022-10-01T17:18:34.265Z,2.17
2022-10-01T17:21:05.616Z,3.20
2022-10-01T17:23:36.631Z,1.70
2022-10-01T17:26:10.140Z,1.17
2022-10-01T17:31:12.191Z,1.45
2022-10-01T17:33:40.711Z,2.80
2022-10-01T17:36:11.012Z,2.08
2022-10-01T17:38:40.571Z,2.05
2022-10-01T17:41:10.004Z,2.00
2022-10-01T17:43:42.078Z,5.17
2022-10-01T17:46:11.694Z,3.87
2022-10-01T17:48:41.749Z,1.43
2022-10-01T17:51:14.872Z,2.45
2022-10-01T17:53:44.931Z,2.73
2022-10-01T17:56:18.433Z,1.70
2022-10-01T17:58:47.989Z,6.87
2022-10-01T18:01:21.230Z,3.33
2022-10-01T18:03:56.421Z,3.95
2022-10-01T18:06:29.546Z,2.65
2022-10-01T18:08:59.040Z,2.50
2022-10-01T18:11:30.407Z,3.15
2022-10-01T18:14:00.396Z,1.67
2022-10-01T18:16:29.962Z,2.30
2022-10-01T18:21:33.094Z,3.55
2022-10-01T18:24:04.739Z,1.62
2022-10-01T18:26:34.434Z,2.15
2022-10-01T18:29:04.511Z,2.07
2022-10-01T18:31:36.634Z,1.55
2022-10-01T18:34:09.222Z,2.77
2022-10-01T18:36:44.892Z,1.95
2022-10-01T18:39:26.109Z,1.80
2022-10-01T18:41:55.700Z,2.22
2022-10-01T18:44:25.798Z,0.70
2022-10-01T18:47:17.856Z,1.50
2022-10-01T18:49:57.464Z,1.62
2022-10-01T18:52:35.823Z,2.27
2022-10-01T18:55:24.665Z,2.02
2022-10-01T18:58:07.965Z,1.57
2022-10-01T19:00:43.593Z,2.60
2022-10-01T19:03:42.265Z,0.98
2022-10-01T19:06:23.366Z,2.50
2022-10-01T19:09:12.631Z,1.85
2022-10-01T19:12:06.311Z,2.42
2022-10-01T19:14:44.569Z,11.18
2022-10-01T19:17:17.064Z,4.83
2022-10-01T19:19:58.629Z,3.08
2022-10-01T19:22:53.808Z,6.40
2022-10-01T19:25:37.983Z,3.33
2022-10-01T19:28:10.546Z,4.45
2022-10-01T19:33:12.738Z,7.15
2022-10-01T19:35:51.310Z,11.67
2022-10-01T19:38:26.609Z,5.97
2022-10-01T19:41:02.092Z,3.15
2022-10-01T19:43:51.423Z,4.60
2022-10-01T19:46:24.076Z,6.70
2022-10-01T19:48:59.525Z,6.17
2022-10-01T19:51:46.462Z,21.15
2022-10-01T19:54:22.070Z,19.42
2022-10-01T19:56:54.344Z,17.75
2022-10-01T19:59:24.079Z,9.83
2022-10-01T20:02:00.195Z,8.28
2022-10-01T20:04:34.394Z,7.62
2022-10-01T20:07:07.046Z,8.20
2022-10-01T20:09:48.557Z,6.25
2022-10-01T20:12:54.365Z,7.92
2022-10-01T20:15:42.002Z,6.55
2022-10-01T20:18:17.553Z,5.83
2022-10-01T20:20:59.067Z,6.97
2022-10-01T20:23:41.359Z,7.15
2022-10-01T20:26:33.708Z,7.07
2022-10-01T20:29:29.234Z,7.62
2022-10-01T20:32:23.378Z,6.10
2022-10-01T20:35:02.142Z,6.15
2022-10-01T20:37:50.601Z,6.30
2022-10-01T20:40:29.309Z,6.83
2022-10-01T20:43:13.992Z,5.28
2022-10-01T20:45:46.408Z,7.33
2022-10-01T20:48:21.917Z,7.37
2022-10-01T20:53:41.947Z,6.65
2022-10-01T20:58:51.225Z,6.00
2022-10-01T21:01:26.515Z,8.50
2022-10-01T21:09:40.780Z,5.92
2022-10-01T21:12:34.464Z,6.43
2022-10-01T21:15:05.248Z,5.62
2022-10-01T21:17:56.715Z,5.53
2022-10-01T21:20:41.954Z,5.97
2022-10-01T21:23:20.037Z,5.80
2022-10-01T21:26:07.508Z,5.25
2022-10-01T21:28:56.403Z,6.15
2022-10-01T21:32:04.017Z,6.53
2022-10-01T21:34:48.791Z,6.22
2022-10-01T21:37:24.147Z,4.55
2022-10-01T21:40:14.944Z,6.17
2022-10-01T21:43:18.999Z,3.17
2022-10-01T21:45:54.288Z,4.67
2022-10-01T21:48:32.687Z,6.75
2022-10-01T21:51:19.513Z,6.30
2022-10-01T21:54:00.805Z,4.10
2022-10-01T21:56:34.494Z,7.25
2022-10-01T21:59:07.140Z,5.12
2022-10-01T22:01:54.790Z,6.65
2022-10-01T22:04:36.348Z,6.17
2022-10-01T22:07:30.172Z,4.12
2022-10-01T22:10:24.001Z,3.90
2022-10-01T22:12:56.477Z,4.12
2022-10-01T22:15:39.004Z,4.40
2022-10-01T22:18:14.083Z,4.97
2022-10-01T22:20:46.073Z,4.45
2022-10-01T22:23:18.493Z,5.67
2022-10-01T22:25:53.924Z,3.87
2022-10-01T22:28:26.556Z,3.30
2022-10-01T22:30:58.445Z,7.20
2022-10-01T22:33:40.021Z,5.30
2022-10-01T22:36:18.498Z,4.35
2022-10-01T22:38:54.325Z,7.60
2022-10-01T22:41:45.078Z,5.17
2022-10-01T22:44:17.764Z,6.28
2022-10-01T22:46:58.905Z,6.35
2022-10-01T22:50:06.157Z,7.45
2022-10-01T22:52:55.385Z,4.53
2022-10-01T22:55:33.859Z,4.33
2022-10-01T23:01:03.123Z,6.27
2022-10-01T23:03:38.488Z,5.37
2022-10-01T23:06:15.017Z,5.10
2022-10-01T23:08:53.635Z,5.12
2022-10-01T23:11:35.135Z,6.47
2022-10-01T23:14:27.361Z,7.50
2022-10-01T23:17:11.897Z,4.72
2022-10-01T23:19:50.168Z,5.70
2022-10-01T23:22:54.725Z,3.67
2022-10-01T23:25:41.613Z,3.45
2022-10-01T23:28:32.714Z,4.85
2022-10-01T23:31:13.803Z,5.05
2022-10-01T23:34:14.891Z,4.30
2022-10-01T23:36:50.305Z,4.70
2022-10-01T23:39:48.653Z,6.30
2022-10-01T23:42:27.658Z,4.08
2022-10-01T23:45:22.833Z,6.80
2022-10-01T23:47:55.330Z,5.78
2022-10-01T23:50:33.755Z,3.92
2022-10-01T23:53:06.257Z,6.97
2022-10-01T23:55:57.111Z,3.02
2022-10-01T23:58:29.245Z,3.45
